Addisleigh Park, New York
Current Conditions -  °F | °C
As of 1:51 PM on Friday 28 Nov 2014 (Local Time) from KJFK Reporting Station
Broken Clouds Broken Clouds  
Wind Chill: 29°   Ceiling: 4400
Heat Index: 38°   Visibility: 10mi
Dew Point: 18°   Wind: 16mph
Humidity: 44%   Direction: 300°WNW
Pressure: 30.17"   Gusts: 22mph
Location:  40.6565°N, 73.7829°W
Report Text: KJFK 281851Z 30014G19KT 10SM BKN044 03/M08 A3017 RMK AO2 SLP215 T00331078
Loading
Personal Weather Stations






























Interactive Weather Map New forecast layout! Learn more

10-Day Weather Forecast

Advertisements
Track Severe Weather on mobile